sensor_id;sensor_type;location;lat;lon;timestamp;temperature;humidity
21403;DHT22;10862;51.886;17.078;2023-03-14T00:01:22;10.80;60.20
21403;DHT22;10862;51.886;17.078;2023-03-14T00:03:49;10.80;52.60
21403;DHT22;10862;51.886;17.078;2023-03-14T00:06:15;10.70;71.70
21403;DHT22;10862;51.886;17.078;2023-03-14T00:08:42;10.60;92.50
21403;DHT22;10862;51.886;17.078;2023-03-14T00:11:11;10.50;99.90
21403;DHT22;10862;51.886;17.078;2023-03-14T00:13:37;10.40;99.90
21403;DHT22;10862;51.886;17.078;2023-03-14T00:16:05;10.40;99.90
21403;DHT22;10862;51.886;17.078;2023-03-14T00:18:32;10.40;99.90
21403;DHT22;10862;51.886;17.078;2023-03-14T00:21:00;10.30;99.90
21403;DHT22;10862;51.886;17.078;2023-03-14T00:23:30;10.30;99.90
21403;DHT22;10862;51.886;17.078;2023-03-14T00:26:07;10.20;99.90
21403;DHT22;10862;51.886;17.078;2023-03-14T00:28:34;10.20;99.90
21403;DHT22;10862;51.886;17.078;2023-03-14T00:31:05;10.10;99.90
21403;DHT22;10862;51.886;17.078;2023-03-14T00:33:31;10.10;99.90
21403;DHT22;10862;51.886;17.078;2023-03-14T00:36:00;10.10;99.90
21403;DHT22;10862;51.886;17.078;2023-03-14T00:38:26;10.00;99.90
21403;DHT22;10862;51.886;17.078;2023-03-14T00:40:52;10.10;99.90
21403;DHT22;10862;51.886;17.078;2023-03-14T00:43:18;10.10;99.90
21403;DHT22;10862;51.886;17.078;2023-03-14T00:45:47;10.10;99.90
21403;DHT22;10862;51.886;17.078;2023-03-14T00:48:13;10.10;99.90
21403;DHT22;10862;51.886;17.078;2023-03-14T00:50:39;10.20;99.90
21403;DHT22;10862;51.886;17.078;2023-03-14T00:53:04;10.10;99.90
21403;DHT22;10862;51.886;17.078;2023-03-14T00:55:30;10.10;99.90
21403;DHT22;10862;51.886;17.078;2023-03-14T00:57:56;10.10;99.90
21403;DHT22;10862;51.886;17.078;2023-03-14T01:00:22;10.10;99.90
21403;DHT22;10862;51.886;17.078;2023-03-14T01:02:48;10.20;99.90
21403;DHT22;10862;51.886;17.078;2023-03-14T01:05:13;10.20;99.90
21403;DHT22;10862;51.886;17.078;2023-03-14T01:07:39;10.20;99.90
21403;DHT22;10862;51.886;17.078;2023-03-14T01:10:05;10.10;99.90
21403;DHT22;10862;51.886;17.078;2023-03-14T01:12:31;10.10;99.90
21403;DHT22;10862;51.886;17.078;2023-03-14T01:14:57;10.10;99.90
21403;DHT22;10862;51.886;17.078;2023-03-14T01:17:23;10.00;99.90
21403;DHT22;10862;51.886;17.078;2023-03-14T01:19:49;9.90;99.90
21403;DHT22;10862;51.886;17.078;2023-03-14T01:22:15;10.00;99.90
21403;DHT22;10862;51.886;17.078;2023-03-14T01:24:40;10.00;99.90
21403;DHT22;10862;51.886;17.078;2023-03-14T01:27:06;10.00;99.90
21403;DHT22;10862;51.886;17.078;2023-03-14T01:29:32;10.10;99.90
21403;DHT22;10862;51.886;17.078;2023-03-14T01:31:57;10.10;99.90
21403;DHT22;10862;51.886;17.078;2023-03-14T01:34:23;10.10;99.90
21403;DHT22;10862;51.886;17.078;2023-03-14T01:36:49;10.00;99.90
21403;DHT22;10862;51.886;17.078;2023-03-14T01:39:14;10.00;99.90
21403;DHT22;10862;51.886;17.078;2023-03-14T01:41:41;9.90;99.90
21403;DHT22;10862;51.886;17.078;2023-03-14T01:44:10;9.80;99.90
21403;DHT22;10862;51.886;17.078;2023-03-14T01:46:44;9.70;99.90
21403;DHT22;10862;51.886;17.078;2023-03-14T01:49:28;9.60;99.90
21403;DHT22;10862;51.886;17.078;2023-03-14T01:52:02;9.50;99.90
21403;DHT22;10862;51.886;17.078;2023-03-14T01:54:41;9.50;99.90
21403;DHT22;10862;51.886;17.078;2023-03-14T02:00:12;9.40;99.90
21403;DHT22;10862;51.886;17.078;2023-03-14T02:02:57;9.30;99.90
21403;DHT22;10862;51.886;17.078;2023-03-14T02:05:26;9.20;99.90
21403;DHT22;10862;51.886;17.078;2023-03-14T02:07:59;9.10;99.90
21403;DHT22;10862;51.886;17.078;2023-03-14T02:10:28;9.10;99.90
21403;DHT22;10862;51.886;17.078;2023-03-14T02:12:56;9.10;99.90
21403;DHT22;10862;51.886;17.078;2023-03-14T02:15:23;9.00;99.90
21403;DHT22;10862;51.886;17.078;2023-03-14T02:17:49;9.00;99.90
21403;DHT22;10862;51.886;17.078;2023-03-14T02:22:49;9.10;99.90
21403;DHT22;10862;51.886;17.078;2023-03-14T02:27:51;9.10;99.90
21403;DHT22;10862;51.886;17.078;2023-03-14T02:30:23;9.10;99.90
21403;DHT22;10862;51.886;17.078;2023-03-14T02:32:54;9.10;99.90
21403;DHT22;10862;51.886;17.078;2023-03-14T02:35:24;9.10;99.90
21403;DHT22;10862;51.886;17.078;2023-03-14T02:37:52;9.20;99.90
21403;DHT22;10862;51.886;17.078;2023-03-14T02:40:18;9.20;99.90
21403;DHT22;10862;51.886;17.078;2023-03-14T02:42:44;9.30;99.90
21403;DHT22;10862;51.886;17.078;2023-03-14T02:47:39;9.30;99.90
21403;DHT22;10862;51.886;17.078;2023-03-14T02:50:10;9.20;99.90
21403;DHT22;10862;51.886;17.078;2023-03-14T02:52:38;9.20;99.90
21403;DHT22;10862;51.886;17.078;2023-03-14T02:55:04;9.20;99.90
21403;DHT22;10862;51.886;17.078;2023-03-14T02:57:30;9.20;99.90
21403;DHT22;10862;51.886;17.078;2023-03-14T02:59:59;9.20;99.90
21403;DHT22;10862;51.886;17.078;2023-03-14T03:02:26;9.20;99.90
21403;DHT22;10862;51.886;17.078;2023-03-14T03:04:52;9.10;99.90
21403;DHT22;10862;51.886;17.078;2023-03-14T03:07:18;9.10;99.90
21403;DHT22;10862;51.886;17.078;2023-03-14T03:09:44;9.10;99.90
21403;DHT22;10862;51.886;17.078;2023-03-14T03:12:10;9.10;99.90
21403;DHT22;10862;51.886;17.078;2023-03-14T03:14:36;9.10;99.90
21403;DHT22;10862;51.886;17.078;2023-03-14T03:17:04;9.10;99.90
21403;DHT22;10862;51.886;17.078;2023-03-14T03:19:30;9.10;99.90
21403;DHT22;10862;51.886;17.078;2023-03-14T03:21:56;9.00;99.90
21403;DHT22;10862;51.886;17.078;2023-03-14T03:24:23;9.10;99.90
21403;DHT22;10862;51.886;17.078;2023-03-14T03:26:49;9.10;99.90
21403;DHT22;10862;51.886;17.078;2023-03-14T03:29:15;9.00;99.90
21403;DHT22;10862;51.886;17.078;2023-03-14T03:31:41;9.00;99.90
21403;DHT22;10862;51.886;17.078;2023-03-14T03:34:07;8.90;99.90
21403;DHT22;10862;51.886;17.078;2023-03-14T03:36:33;8.80;99.90
21403;DHT22;10862;51.886;17.078;2023-03-14T03:38:59;8.80;99.90
21403;DHT22;10862;51.886;17.078;2023-03-14T03:41:25;8.80;99.90
21403;DHT22;10862;51.886;17.078;2023-03-14T03:43:51;8.70;99.90
21403;DHT22;10862;51.886;17.078;2023-03-14T03:46:17;8.70;99.90
21403;DHT22;10862;51.886;17.078;2023-03-14T03:48:42;8.70;99.90
21403;DHT22;10862;51.886;17.078;2023-03-14T03:51:13;8.70;99.90
21403;DHT22;10862;51.886;17.078;2023-03-14T03:53:39;8.70;99.90
21403;DHT22;10862;51.886;17.078;2023-03-14T03:56:05;8.80;99.90
21403;DHT22;10862;51.886;17.078;2023-03-14T03:58:31;8.70;99.90
21403;DHT22;10862;51.886;17.078;2023-03-14T04:00:57;8.70;99.90
21403;DHT22;10862;51.886;17.078;2023-03-14T04:03:23;8.60;99.90
21403;DHT22;10862;51.886;17.078;2023-03-14T04:06:05;8.60;99.90
21403;DHT22;10862;51.886;17.078;2023-03-14T04:08:31;8.60;99.90
21403;DHT22;10862;51.886;17.078;2023-03-14T04:10:58;8.50;99.90
21403;DHT22;10862;51.886;17.078;2023-03-14T04:13:25;8.60;99.90
21403;DHT22;10862;51.886;17.078;2023-03-14T04:15:51;8.60;99.90
21403;DHT22;10862;51.886;17.078;2023-03-14T04:18:17;8.50;99.90
21403;DHT22;10862;51.886;17.078;2023-03-14T04:20:43;8.40;99.90
21403;DHT22;10862;51.886;17.078;2023-03-14T04:23:09;8.40;99.90
21403;DHT22;10862;51.886;17.078;2023-03-14T04:25:35;8.30;99.90
21403;DHT22;10862;51.886;17.078;2023-03-14T04:28:01;8.50;95.60
21403;DHT22;10862;51.886;17.078;2023-03-14T04:30:27;8.50;90.40
21403;DHT22;10862;51.886;17.078;2023-03-14T04:32:53;8.40;87.60
21403;DHT22;10862;51.886;17.078;2023-03-14T04:35:18;8.40;80.80
21403;DHT22;10862;51.886;17.078;2023-03-14T04:37:44;8.40;72.60
21403;DHT22;10862;51.886;17.078;2023-03-14T04:40:11;8.50;59.40
21403;DHT22;10862;51.886;17.078;2023-03-14T04:42:36;8.40;56.40
21403;DHT22;10862;51.886;17.078;2023-03-14T04:45:02;8.40;56.90
21403;DHT22;10862;51.886;17.078;2023-03-14T04:47:28;8.30;61.40
21403;DHT22;10862;51.886;17.078;2023-03-14T04:49:54;8.40;46.30
21403;DHT22;10862;51.886;17.078;2023-03-14T04:52:20;8.40;43.70
21403;DHT22;10862;51.886;17.078;2023-03-14T04:54:45;8.30;43.80
21403;DHT22;10862;51.886;17.078;2023-03-14T04:57:11;8.30;42.00
21403;DHT22;10862;51.886;17.078;2023-03-14T04:59:37;8.20;43.10
21403;DHT22;10862;51.886;17.078;2023-03-14T05:02:02;8.30;37.70
21403;DHT22;10862;51.886;17.078;2023-03-14T05:04:28;8.30;36.60
21403;DHT22;10862;51.886;17.078;2023-03-14T05:06:54;8.20;37.30
21403;DHT22;10862;51.886;17.078;2023-03-14T05:09:20;8.20;36.50
21403;DHT22;10862;51.886;17.078;2023-03-14T05:11:46;8.20;38.90
21403;DHT22;10862;51.886;17.078;2023-03-14T05:14:11;8.10;41.40
21403;DHT22;10862;51.886;17.078;2023-03-14T05:16:37;8.10;43.10
21403;DHT22;10862;51.886;17.078;2023-03-14T05:19:03;8.10;39.30
21403;DHT22;10862;51.886;17.078;2023-03-14T05:21:29;8.10;44.00
21403;DHT22;10862;51.886;17.078;2023-03-14T05:23:54;8.10;51.00
21403;DHT22;10862;51.886;17.078;2023-03-14T05:26:20;8.10;44.50
21403;DHT22;10862;51.886;17.078;2023-03-14T05:28:46;8.10;42.30
21403;DHT22;10862;51.886;17.078;2023-03-14T05:31:12;8.10;39.30
21403;DHT22;10862;51.886;17.078;2023-03-14T05:33:37;8.20;35.30
21403;DHT22;10862;51.886;17.078;2023-03-14T05:36:03;8.10;39.60
21403;DHT22;10862;51.886;17.078;2023-03-14T05:38:29;8.10;51.10
21403;DHT22;10862;51.886;17.078;2023-03-14T05:40:55;8.20;50.20
21403;DHT22;10862;51.886;17.078;2023-03-14T05:43:20;8.20;40.70
21403;DHT22;10862;51.886;17.078;2023-03-14T05:45:46;8.40;35.10
21403;DHT22;10862;51.886;17.078;2023-03-14T05:48:12;8.40;27.10
21403;DHT22;10862;51.886;17.078;2023-03-14T05:50:37;8.50;24.50
21403;DHT22;10862;51.886;17.078;2023-03-14T05:53:03;8.70;16.30
21403;DHT22;10862;51.886;17.078;2023-03-14T05:55:29;8.80;13.80
21403;DHT22;10862;51.886;17.078;2023-03-14T05:57:55;8.90;13.50
21403;DHT22;10862;51.886;17.078;2023-03-14T06:00:21;9.00;6.60
21403;DHT22;10862;51.886;17.078;2023-03-14T06:02:47;9.00;4.80
21403;DHT22;10862;51.886;17.078;2023-03-14T06:05:13;9.00;3.80
21403;DHT22;10862;51.886;17.078;2023-03-14T06:07:39;9.10;1.00
21403;DHT22;10862;51.886;17.078;2023-03-14T06:10:05;9.20;1.00
21403;DHT22;10862;51.886;17.078;2023-03-14T06:12:31;9.30;1.00
21403;DHT22;10862;51.886;17.078;2023-03-14T06:14:57;9.40;1.00
21403;DHT22;10862;51.886;17.078;2023-03-14T06:17:22;9.40;1.00
21403;DHT22;10862;51.886;17.078;2023-03-14T06:19:48;9.40;1.00
21403;DHT22;10862;51.886;17.078;2023-03-14T06:22:14;9.50;1.00
21403;DHT22;10862;51.886;17.078;2023-03-14T06:24:39;9.70;1.00
21403;DHT22;10862;51.886;17.078;2023-03-14T06:27:05;9.70;1.00
21403;DHT22;10862;51.886;17.078;2023-03-14T06:29:31;9.70;1.00
21403;DHT22;10862;51.886;17.078;2023-03-14T06:31:57;9.80;1.00
21403;DHT22;10862;51.886;17.078;2023-03-14T06:34:22;9.90;1.00
21403;DHT22;10862;51.886;17.078;2023-03-14T06:36:48;9.90;1.00
21403;DHT22;10862;51.886;17.078;2023-03-14T06:39:14;10.00;1.00
21403;DHT22;10862;51.886;17.078;2023-03-14T06:41:39;10.00;1.00
21403;DHT22;10862;51.886;17.078;2023-03-14T06:44:05;10.00;1.00
21403;DHT22;10862;51.886;17.078;2023-03-14T06:46:31;10.00;1.00
21403;DHT22;10862;51.886;17.078;2023-03-14T06:48:57;10.00;1.00
21403;DHT22;10862;51.886;17.078;2023-03-14T06:51:22;10.00;1.00
21403;DHT22;10862;51.886;17.078;2023-03-14T06:53:48;10.10;1.00
21403;DHT22;10862;51.886;17.078;2023-03-14T06:56:14;10.30;1.00
21403;DHT22;10862;51.886;17.078;2023-03-14T06:58:40;10.40;1.00
21403;DHT22;10862;51.886;17.078;2023-03-14T07:01:10;10.60;1.00
21403;DHT22;10862;51.886;17.078;2023-03-14T07:03:42;10.80;1.00
21403;DHT22;10862;51.886;17.078;2023-03-14T07:06:07;10.90;1.00
21403;DHT22;10862;51.886;17.078;2023-03-14T07:08:33;11.00;1.00
21403;DHT22;10862;51.886;17.078;2023-03-14T07:10:59;11.10;1.00
21403;DHT22;10862;51.886;17.078;2023-03-14T07:13:24;11.20;1.00
21403;DHT22;10862;51.886;17.078;2023-03-14T07:15:50;11.20;1.00
21403;DHT22;10862;51.886;17.078;2023-03-14T07:18:16;11.30;1.00
21403;DHT22;10862;51.886;17.078;2023-03-14T07:20:41;11.20;1.00
21403;DHT22;10862;51.886;17.078;2023-03-14T07:23:07;11.30;1.00
21403;DHT22;10862;51.886;17.078;2023-03-14T07:25:33;11.30;1.00
21403;DHT22;10862;51.886;17.078;2023-03-14T07:27:58;11.40;1.00
21403;DHT22;10862;51.886;17.078;2023-03-14T07:30:24;11.40;1.00
21403;DHT22;10862;51.886;17.078;2023-03-14T07:32:50;11.60;1.00
21403;DHT22;10862;51.886;17.078;2023-03-14T07:35:16;11.60;1.00
21403;DHT22;10862;51.886;17.078;2023-03-14T07:37:41;11.70;1.00
21403;DHT22;10862;51.886;17.078;2023-03-14T07:40:08;11.70;1.00
21403;DHT22;10862;51.886;17.078;2023-03-14T07:42:35;11.70;1.00
21403;DHT22;10862;51.886;17.078;2023-03-14T07:45:01;11.80;1.00
21403;DHT22;10862;51.886;17.078;2023-03-14T07:47:28;11.90;1.00
21403;DHT22;10862;51.886;17.078;2023-03-14T07:49:54;12.00;1.00
21403;DHT22;10862;51.886;17.078;2023-03-14T07:52:19;12.10;1.00
21403;DHT22;10862;51.886;17.078;2023-03-14T07:54:45;12.00;1.00
21403;DHT22;10862;51.886;17.078;2023-03-14T07:57:11;11.90;1.00
21403;DHT22;10862;51.886;17.078;2023-03-14T07:59:36;11.80;1.00
21403;DHT22;10862;51.886;17.078;2023-03-14T08:02:02;11.70;1.00
21403;DHT22;10862;51.886;17.078;2023-03-14T08:04:31;11.60;1.00
21403;DHT22;10862;51.886;17.078;2023-03-14T08:06:56;11.60;1.00
21403;DHT22;10862;51.886;17.078;2023-03-14T08:09:22;11.50;1.00
21403;DHT22;10862;51.886;17.078;2023-03-14T08:11:48;11.50;1.00
21403;DHT22;10862;51.886;17.078;2023-03-14T08:14:13;11.50;1.00
21403;DHT22;10862;51.886;17.078;2023-03-14T08:16:39;11.50;1.00
21403;DHT22;10862;51.886;17.078;2023-03-14T08:19:05;11.50;1.00
21403;DHT22;10862;51.886;17.078;2023-03-14T08:21:30;11.50;1.00
21403;DHT22;10862;51.886;17.078;2023-03-14T08:23:56;11.80;1.00
21403;DHT22;10862;51.886;17.078;2023-03-14T08:26:22;12.00;1.00
21403;DHT22;10862;51.886;17.078;2023-03-14T08:28:47;12.00;1.00
21403;DHT22;10862;51.886;17.078;2023-03-14T08:31:13;12.10;1.00
21403;DHT22;10862;51.886;17.078;2023-03-14T08:33:39;12.10;1.00
21403;DHT22;10862;51.886;17.078;2023-03-14T08:36:05;12.00;1.00
21403;DHT22;10862;51.886;17.078;2023-03-14T08:38:31;11.90;1.00
21403;DHT22;10862;51.886;17.078;2023-03-14T08:40:58;11.90;1.00
21403;DHT22;10862;51.886;17.078;2023-03-14T08:43:25;12.00;1.00
21403;DHT22;10862;51.886;17.078;2023-03-14T08:45:51;12.10;1.00
21403;DHT22;10862;51.886;17.078;2023-03-14T08:48:17;12.20;1.00
21403;DHT22;10862;51.886;17.078;2023-03-14T08:50:42;12.20;1.00
21403;DHT22;10862;51.886;17.078;2023-03-14T08:53:09;12.20;1.00
21403;DHT22;10862;51.886;17.078;2023-03-14T08:55:34;12.30;1.00
21403;DHT22;10862;51.886;17.078;2023-03-14T08:58:00;12.30;1.00
21403;DHT22;10862;51.886;17.078;2023-03-14T09:00:26;12.40;1.00
21403;DHT22;10862;51.886;17.078;2023-03-14T09:02:52;12.60;1.00
21403;DHT22;10862;51.886;17.078;2023-03-14T09:05:18;12.70;1.00
21403;DHT22;10862;51.886;17.078;2023-03-14T09:07:44;13.00;1.00
21403;DHT22;10862;51.886;17.078;2023-03-14T09:10:10;12.90;1.00
21403;DHT22;10862;51.886;17.078;2023-03-14T09:12:36;13.00;1.00
21403;DHT22;10862;51.886;17.078;2023-03-14T09:15:01;13.10;1.00
21403;DHT22;10862;51.886;17.078;2023-03-14T09:17:27;13.30;1.00
21403;DHT22;10862;51.886;17.078;2023-03-14T09:19:53;13.30;1.00
21403;DHT22;10862;51.886;17.078;2023-03-14T09:22:19;13.40;1.00
21403;DHT22;10862;51.886;17.078;2023-03-14T09:24:45;13.40;1.00
21403;DHT22;10862;51.886;17.078;2023-03-14T09:27:11;13.50;1.00
21403;DHT22;10862;51.886;17.078;2023-03-14T09:29:37;13.50;1.00
21403;DHT22;10862;51.886;17.078;2023-03-14T09:32:03;13.70;1.00
21403;DHT22;10862;51.886;17.078;2023-03-14T09:34:29;13.80;1.00
21403;DHT22;10862;51.886;17.078;2023-03-14T09:36:55;14.00;1.00
21403;DHT22;10862;51.886;17.078;2023-03-14T09:39:21;13.80;1.00
21403;DHT22;10862;51.886;17.078;2023-03-14T09:41:49;13.40;1.00
21403;DHT22;10862;51.886;17.078;2023-03-14T09:44:31;13.30;1.00
21403;DHT22;10862;51.886;17.078;2023-03-14T09:47:01;13.20;1.00
21403;DHT22;10862;51.886;17.078;2023-03-14T09:49:31;13.20;1.00
21403;DHT22;10862;51.886;17.078;2023-03-14T09:52:00;13.20;1.00
21403;DHT22;10862;51.886;17.078;2023-03-14T09:54:32;13.10;1.00
21403;DHT22;10862;51.886;17.078;2023-03-14T09:57:00;13.10;1.00
21403;DHT22;10862;51.886;17.078;2023-03-14T09:59:27;13.10;1.00
21403;DHT22;10862;51.886;17.078;2023-03-14T10:01:57;13.10;1.00
21403;DHT22;10862;51.886;17.078;2023-03-14T10:04:23;13.20;1.00
21403;DHT22;10862;51.886;17.078;2023-03-14T10:06:49;13.20;1.00
21403;DHT22;10862;51.886;17.078;2023-03-14T10:09:21;13.20;1.00
21403;DHT22;10862;51.886;17.078;2023-03-14T10:11:57;13.20;1.00
21403;DHT22;10862;51.886;17.078;2023-03-14T10:14:33;13.20;1.00
21403;DHT22;10862;51.886;17.078;2023-03-14T10:17:07;13.20;1.00
21403;DHT22;10862;51.886;17.078;2023-03-14T10:19:35;13.10;1.00
21403;DHT22;10862;51.886;17.078;2023-03-14T10:22:03;13.10;1.00
21403;DHT22;10862;51.886;17.078;2023-03-14T10:24:32;13.10;1.00
21403;DHT22;10862;51.886;17.078;2023-03-14T10:27:17;13.20;1.00
21403;DHT22;10862;51.886;17.078;2023-03-14T10:29:58;13.20;1.00
21403;DHT22;10862;51.886;17.078;2023-03-14T10:32:32;13.40;1.00
21403;DHT22;10862;51.886;17.078;2023-03-14T10:38:00;13.40;1.00
21403;DHT22;10862;51.886;17.078;2023-03-14T10:40:47;13.40;1.00
21403;DHT22;10862;51.886;17.078;2023-03-14T10:43:22;13.50;1.00
21403;DHT22;10862;51.886;17.078;2023-03-14T10:51:03;13.60;1.00
21403;DHT22;10862;51.886;17.078;2023-03-14T10:56:14;13.50;1.00
21403;DHT22;10862;51.886;17.078;2023-03-14T10:58:48;13.40;1.00
21403;DHT22;10862;51.886;17.078;2023-03-14T11:01:26;13.30;1.00
21403;DHT22;10862;51.886;17.078;2023-03-14T11:11:39;13.20;1.00
21403;DHT22;10862;51.886;17.078;2023-03-14T11:14:36;13.30;1.00
21403;DHT22;10862;51.886;17.078;2023-03-14T11:17:44;13.30;1.00
21403;DHT22;10862;51.886;17.078;2023-03-14T11:20:17;13.40;1.00
21403;DHT22;10862;51.886;17.078;2023-03-14T11:22:56;13.50;1.00
21403;DHT22;10862;51.886;17.078;2023-03-14T11:25:43;13.70;1.00
21403;DHT22;10862;51.886;17.078;2023-03-14T11:28:36;13.80;1.00
21403;DHT22;10862;51.886;17.078;2023-03-14T11:31:23;14.10;1.00
21403;DHT22;10862;51.886;17.078;2023-03-14T11:34:05;14.30;1.00
21403;DHT22;10862;51.886;17.078;2023-03-14T11:37:06;14.50;1.00
21403;DHT22;10862;51.886;17.078;2023-03-14T11:39:41;14.60;1.00
21403;DHT22;10862;51.886;17.078;2023-03-14T11:42:13;14.40;1.00
21403;DHT22;10862;51.886;17.078;2023-03-14T11:44:40;14.40;1.00
21403;DHT22;10862;51.886;17.078;2023-03-14T11:47:17;14.40;1.00
21403;DHT22;10862;51.886;17.078;2023-03-14T11:50:31;14.30;1.00
21403;DHT22;10862;51.886;17.078;2023-03-14T11:52:44;14.40;1.00
21403;DHT22;10862;51.886;17.078;2023-03-14T11:55:19;14.40;1.00
21403;DHT22;10862;51.886;17.078;2023-03-14T11:57:47;14.70;1.00
21403;DHT22;10862;51.886;17.078;2023-03-14T12:00:21;14.90;1.00
21403;DHT22;10862;51.886;17.078;2023-03-14T12:03:23;14.70;1.00
21403;DHT22;10862;51.886;17.078;2023-03-14T12:05:54;14.50;1.00
21403;DHT22;10862;51.886;17.078;2023-03-14T12:08:41;14.60;1.00
21403;DHT22;10862;51.886;17.078;2023-03-14T12:11:31;14.50;1.00
21403;DHT22;10862;51.886;17.078;2023-03-14T12:13:57;14.50;1.00
21403;DHT22;10862;51.886;17.078;2023-03-14T12:18:49;14.50;1.00
21403;DHT22;10862;51.886;17.078;2023-03-14T12:21:15;14.50;1.00
21403;DHT22;10862;51.886;17.078;2023-03-14T12:26:18;14.30;1.00
21403;DHT22;10862;51.886;17.078;2023-03-14T12:42:15;14.50;1.00
21403;DHT22;10862;51.886;17.078;2023-03-14T12:44:50;14.50;1.00
21403;DHT22;10862;51.886;17.078;2023-03-14T12:49:46;14.70;1.00
21403;DHT22;10862;51.886;17.078;2023-03-14T12:52:20;14.80;1.00
21403;DHT22;10862;51.886;17.078;2023-03-14T12:55:03;14.80;1.00
21403;DHT22;10862;51.886;17.078;2023-03-14T12:57:40;14.60;1.00
21403;DHT22;10862;51.886;17.078;2023-03-14T13:00:20;14.60;1.00
21403;DHT22;10862;51.886;17.078;2023-03-14T13:02:47;14.50;1.00
21403;DHT22;10862;51.886;17.078;2023-03-14T13:05:22;14.40;1.00
21403;DHT22;10862;51.886;17.078;2023-03-14T13:10:31;14.40;1.00
21403;DHT22;10862;51.886;17.078;2023-03-14T13:13:17;14.40;1.00
21403;DHT22;10862;51.886;17.078;2023-03-14T13:15:47;14.40;1.00
21403;DHT22;10862;51.886;17.078;2023-03-14T13:18:19;14.30;1.00
21403;DHT22;10862;51.886;17.078;2023-03-14T13:20:54;14.20;1.00
21403;DHT22;10862;51.886;17.078;2023-03-14T13:23:34;14.20;1.00
21403;DHT22;10862;51.886;17.078;2023-03-14T13:26:01;14.30;1.00
21403;DHT22;10862;51.886;17.078;2023-03-14T13:28:28;14.20;1.00
21403;DHT22;10862;51.886;17.078;2023-03-14T13:31:00;14.00;1.00
21403;DHT22;10862;51.886;17.078;2023-03-14T13:33:26;13.80;1.00
21403;DHT22;10862;51.886;17.078;2023-03-14T13:35:56;13.70;1.00
21403;DHT22;10862;51.886;17.078;2023-03-14T13:38:25;13.50;1.00
21403;DHT22;10862;51.886;17.078;2023-03-14T13:40:54;13.40;1.00
21403;DHT22;10862;51.886;17.078;2023-03-14T13:43:30;13.40;1.00
21403;DHT22;10862;51.886;17.078;2023-03-14T13:48:29;13.50;1.00
21403;DHT22;10862;51.886;17.078;2023-03-14T13:51:02;13.50;1.00
21403;DHT22;10862;51.886;17.078;2023-03-14T13:53:28;13.50;1.00
21403;DHT22;10862;51.886;17.078;2023-03-14T13:55:54;13.40;1.00
21403;DHT22;10862;51.886;17.078;2023-03-14T13:58:26;13.40;1.00
21403;DHT22;10862;51.886;17.078;2023-03-14T14:01:01;13.40;1.00
21403;DHT22;10862;51.886;17.078;2023-03-14T14:03:29;13.50;1.00
21403;DHT22;10862;51.886;17.078;2023-03-14T14:05:56;13.60;1.00
21403;DHT22;10862;51.886;17.078;2023-03-14T14:08:24;13.70;1.00
21403;DHT22;10862;51.886;17.078;2023-03-14T14:10:53;13.60;1.00
21403;DHT22;10862;51.886;17.078;2023-03-14T14:13:21;13.50;1.00
21403;DHT22;10862;51.886;17.078;2023-03-14T14:15:51;13.50;1.00
21403;DHT22;10862;51.886;17.078;2023-03-14T14:18:19;13.40;1.00
21403;DHT22;10862;51.886;17.078;2023-03-14T14:20:47;13.40;1.00
21403;DHT22;10862;51.886;17.078;2023-03-14T14:23:21;13.40;1.00
21403;DHT22;10862;51.886;17.078;2023-03-14T14:25:52;13.40;1.00
21403;DHT22;10862;51.886;17.078;2023-03-14T14:28:31;13.50;1.00
21403;DHT22;10862;51.886;17.078;2023-03-14T14:31:21;13.50;1.00
21403;DHT22;10862;51.886;17.078;2023-03-14T14:34:04;13.60;1.00
21403;DHT22;10862;51.886;17.078;2023-03-14T14:36:41;13.60;1.00
21403;DHT22;10862;51.886;17.078;2023-03-14T14:39:25;13.40;1.00
21403;DHT22;10862;51.886;17.078;2023-03-14T14:41:53;13.30;1.00
21403;DHT22;10862;51.886;17.078;2023-03-14T14:44:29;13.20;1.00
21403;DHT22;10862;51.886;17.078;2023-03-14T14:46:56;13.10;1.00
21403;DHT22;10862;51.886;17.078;2023-03-14T14:49:29;13.00;1.00
21403;DHT22;10862;51.886;17.078;2023-03-14T14:52:01;13.10;1.00
21403;DHT22;10862;51.886;17.078;2023-03-14T14:54:38;13.10;1.00
21403;DHT22;10862;51.886;17.078;2023-03-14T14:57:12;13.10;1.00
21403;DHT22;10862;51.886;17.078;2023-03-14T14:59:42;13.10;1.00
21403;DHT22;10862;51.886;17.078;2023-03-14T15:05:18;13.00;1.00
21403;DHT22;10862;51.886;17.078;2023-03-14T15:07:45;12.90;1.00
21403;DHT22;10862;51.886;17.078;2023-03-14T15:10:16;12.80;1.00
21403;DHT22;10862;51.886;17.078;2023-03-14T15:12:42;12.80;1.00
21403;DHT22;10862;51.886;17.078;2023-03-14T15:15:09;12.80;1.00
21403;DHT22;10862;51.886;17.078;2023-03-14T15:17:35;12.70;1.00
21403;DHT22;10862;51.886;17.078;2023-03-14T15:20:06;12.70;1.00
21403;DHT22;10862;51.886;17.078;2023-03-14T15:22:32;12.70;1.00
21403;DHT22;10862;51.886;17.078;2023-03-14T15:24:58;12.80;1.00
21403;DHT22;10862;51.886;17.078;2023-03-14T15:27:23;12.80;1.00
21403;DHT22;10862;51.886;17.078;2023-03-14T15:29:49;12.80;1.00
21403;DHT22;10862;51.886;17.078;2023-03-14T15:32:16;12.70;1.00
21403;DHT22;10862;51.886;17.078;2023-03-14T15:34:43;12.70;1.00
21403;DHT22;10862;51.886;17.078;2023-03-14T15:37:13;12.70;1.00
21403;DHT22;10862;51.886;17.078;2023-03-14T15:39:42;12.70;1.00
21403;DHT22;10862;51.886;17.078;2023-03-14T15:42:08;12.70;1.00
21403;DHT22;10862;51.886;17.078;2023-03-14T15:44:34;12.70;1.00
21403;DHT22;10862;51.886;17.078;2023-03-14T15:47:00;12.70;1.00
21403;DHT22;10862;51.886;17.078;2023-03-14T15:49:26;12.70;1.00
21403;DHT22;10862;51.886;17.078;2023-03-14T15:51:52;12.70;1.00
21403;DHT22;10862;51.886;17.078;2023-03-14T15:54:18;12.60;1.00
21403;DHT22;10862;51.886;17.078;2023-03-14T15:56:43;12.60;1.00
21403;DHT22;10862;51.886;17.078;2023-03-14T15:59:09;12.60;1.00
21403;DHT22;10862;51.886;17.078;2023-03-14T16:01:35;12.60;1.00
21403;DHT22;10862;51.886;17.078;2023-03-14T16:04:01;12.60;1.00
21403;DHT22;10862;51.886;17.078;2023-03-14T16:06:28;12.70;1.00
21403;DHT22;10862;51.886;17.078;2023-03-14T16:08:54;12.70;1.00
21403;DHT22;10862;51.886;17.078;2023-03-14T16:11:20;12.70;1.00
21403;DHT22;10862;51.886;17.078;2023-03-14T16:13:46;12.70;1.00
21403;DHT22;10862;51.886;17.078;2023-03-14T16:16:13;12.70;1.00
21403;DHT22;10862;51.886;17.078;2023-03-14T16:18:39;12.70;1.00
21403;DHT22;10862;51.886;17.078;2023-03-14T16:21:07;12.70;1.00
21403;DHT22;10862;51.886;17.078;2023-03-14T16:23:34;12.70;1.00
21403;DHT22;10862;51.886;17.078;2023-03-14T16:26:07;12.70;1.00
21403;DHT22;10862;51.886;17.078;2023-03-14T16:28:33;12.60;1.00
21403;DHT22;10862;51.886;17.078;2023-03-14T16:31:03;12.50;1.00
21403;DHT22;10862;51.886;17.078;2023-03-14T16:33:29;12.50;1.00
21403;DHT22;10862;51.886;17.078;2023-03-14T16:36:00;12.40;1.00
21403;DHT22;10862;51.886;17.078;2023-03-14T16:38:27;12.40;1.00